createdAt,value
2022-12-23T00:01:07.654Z,22.25
2022-12-23T00:03:34.871Z,24.42
2022-12-23T00:06:01.898Z,21.58
2022-12-23T00:08:28.802Z,24.73
2022-12-23T00:10:55.707Z,25.08
2022-12-23T00:13:22.907Z,24.80
2022-12-23T00:15:49.830Z,25.75
2022-12-23T00:18:16.743Z,23.17
2022-12-23T00:20:43.664Z,23.35
2022-12-23T00:23:10.576Z,24.60
2022-12-23T00:25:37.514Z,24.77
2022-12-23T00:28:04.411Z,25.27
2022-12-23T00:30:31.350Z,22.77
2022-12-23T00:32:58.277Z,27.90
2022-12-23T00:35:25.208Z,25.45
2022-12-23T00:37:52.161Z,26.25
2022-12-23T00:40:19.119Z,25.13
2022-12-23T00:42:46.117Z,22.25
2022-12-23T00:45:13.018Z,26.95
2022-12-23T00:47:39.967Z,24.95
2022-12-23T00:50:06.849Z,25.10
2022-12-23T00:52:33.753Z,21.90
2022-12-23T00:55:00.656Z,27.23
2022-12-23T00:57:27.584Z,26.38
2022-12-23T00:59:54.488Z,26.08
2022-12-23T01:02:21.528Z,22.90
2022-12-23T01:04:48.577Z,25.85
2022-12-23T01:07:15.585Z,26.85
2022-12-23T01:09:42.502Z,23.33
2022-12-23T01:12:09.441Z,26.02
2022-12-23T01:14:43.601Z,26.92
2022-12-23T01:17:10.564Z,26.02
2022-12-23T01:19:38.523Z,24.98
2022-12-23T01:22:05.805Z,25.38
2022-12-23T01:24:32.729Z,23.08
2022-12-23T01:26:59.665Z,24.88
2022-12-23T01:29:26.578Z,25.45
2022-12-23T01:31:53.610Z,26.05
2022-12-23T01:34:20.545Z,28.02
2022-12-23T01:36:47.460Z,29.25
2022-12-23T01:39:14.548Z,28.02
2022-12-23T01:41:41.456Z,29.63
2022-12-23T01:44:08.338Z,25.73
2022-12-23T01:46:35.277Z,22.95
2022-12-23T01:49:02.184Z,25.10
2022-12-23T01:51:29.127Z,24.10
2022-12-23T01:53:56.031Z,28.52
2022-12-23T01:56:23.136Z,28.92
2022-12-23T01:58:50.061Z,30.38
2022-12-23T02:01:17.094Z,27.52
2022-12-23T02:03:44.334Z,27.38
2022-12-23T02:06:11.477Z,27.67
2022-12-23T02:08:38.414Z,28.40
2022-12-23T02:11:05.554Z,29.98
2022-12-23T02:13:32.463Z,24.40
2022-12-23T02:15:59.384Z,27.15
2022-12-23T02:18:26.269Z,29.63
2022-12-23T02:20:53.151Z,26.30
2022-12-23T02:23:20.061Z,26.92
2022-12-23T02:25:47.015Z,28.50
2022-12-23T02:28:13.944Z,26.92
2022-12-23T02:30:40.921Z,28.38
2022-12-23T02:33:07.880Z,28.20
2022-12-23T02:35:34.809Z,25.65
2022-12-23T02:38:02.956Z,27.35
2022-12-23T02:40:29.894Z,25.67
2022-12-23T02:42:56.802Z,26.17
2022-12-23T02:45:23.705Z,28.40
2022-12-23T02:47:50.613Z,28.08
2022-12-23T02:50:18.574Z,25.23
2022-12-23T02:52:45.486Z,28.77
2022-12-23T02:55:12.449Z,26.52
2022-12-23T02:57:39.347Z,28.27
2022-12-23T03:00:06.257Z,31.27
2022-12-23T03:02:33.284Z,31.20
2022-12-23T03:05:01.103Z,28.35
2022-12-23T03:07:28.294Z,28.52
2022-12-23T03:09:55.199Z,27.85
2022-12-23T03:12:22.113Z,28.65
2022-12-23T03:14:49.013Z,31.40
2022-12-23T03:17:15.945Z,28.38
2022-12-23T03:19:42.837Z,29.15
2022-12-23T03:22:14.083Z,28.63
2022-12-23T03:24:40.992Z,28.88
2022-12-23T03:27:07.931Z,34.42
2022-12-23T03:29:34.932Z,28.63
2022-12-23T03:32:01.871Z,33.28
2022-12-23T03:34:28.788Z,28.75
2022-12-23T03:36:55.693Z,30.45
2022-12-23T03:39:22.598Z,31.05
2022-12-23T03:41:49.527Z,30.63
2022-12-23T03:44:16.429Z,30.63
2022-12-23T03:46:43.471Z,29.45
2022-12-23T03:49:10.401Z,32.05
2022-12-23T03:51:37.315Z,29.98
2022-12-23T03:54:04.211Z,29.23
2022-12-23T03:56:31.180Z,32.55
2022-12-23T03:58:58.105Z,34.55
2022-12-23T04:01:25.189Z,31.80
2022-12-23T04:03:52.148Z,30.40
2022-12-23T04:06:19.070Z,29.85
2022-12-23T04:08:45.993Z,33.50
2022-12-23T04:11:12.992Z,33.80
2022-12-23T04:13:39.911Z,32.90
2022-12-23T04:16:06.857Z,32.70
2022-12-23T04:18:33.821Z,34.92
2022-12-23T04:21:01.766Z,35.92
2022-12-23T04:23:28.678Z,34.53
2022-12-23T04:25:55.560Z,31.92
2022-12-23T04:28:22.480Z,34.85
2022-12-23T04:30:49.423Z,30.58
2022-12-23T04:33:16.339Z,32.95
2022-12-23T04:35:44.324Z,34.38
2022-12-23T04:38:11.261Z,35.50
2022-12-23T04:40:38.198Z,32.13
2022-12-23T04:43:05.151Z,33.92
2022-12-23T04:45:32.060Z,35.58
2022-12-23T04:47:58.967Z,32.83
2022-12-23T04:50:25.877Z,31.38
2022-12-23T04:52:52.827Z,33.65
2022-12-23T04:55:19.797Z,36.38
2022-12-23T04:57:46.726Z,38.30
2022-12-23T05:00:13.648Z,34.30
2022-12-23T05:02:40.655Z,37.75
2022-12-23T05:05:07.632Z,36.80
2022-12-23T05:07:34.541Z,40.55
2022-12-23T05:10:01.505Z,39.38
2022-12-23T05:12:28.509Z,37.33
2022-12-23T05:14:55.648Z,40.70
2022-12-23T05:17:22.591Z,37.78
2022-12-23T05:19:49.515Z,34.42
2022-12-23T05:22:16.436Z,38.15
2022-12-23T05:24:43.360Z,36.38
2022-12-23T05:27:10.312Z,35.95
2022-12-23T05:29:37.231Z,41.78
2022-12-23T05:32:04.271Z,40.00
2022-12-23T05:34:31.416Z,40.42
2022-12-23T05:36:58.347Z,40.63
2022-12-23T05:39:25.317Z,39.28
2022-12-23T05:41:52.268Z,38.00
2022-12-23T05:44:19.208Z,40.35
2022-12-23T05:46:46.144Z,39.53
2022-12-23T05:49:13.090Z,39.70
2022-12-23T05:51:40.016Z,39.80
2022-12-23T05:54:07.409Z,39.13
2022-12-23T05:56:34.353Z,40.50
2022-12-23T05:59:01.275Z,46.67
2022-12-23T06:01:28.289Z,41.22
2022-12-23T06:03:55.428Z,42.08
2022-12-23T06:06:22.453Z,43.20
2022-12-23T06:08:52.040Z,40.35
2022-12-23T06:11:22.769Z,44.67
2022-12-23T06:13:49.703Z,39.58
2022-12-23T06:16:16.611Z,45.72
2022-12-23T06:18:43.634Z,45.83
2022-12-23T06:21:10.590Z,46.28
2022-12-23T06:23:37.536Z,41.30
2022-12-23T06:26:04.571Z,40.80
2022-12-23T06:28:31.505Z,41.72
2022-12-23T06:30:58.475Z,42.28
2022-12-23T06:33:25.424Z,43.17
2022-12-23T06:35:52.377Z,43.85
2022-12-23T06:38:19.297Z,47.30
2022-12-23T06:40:46.289Z,43.03
2022-12-23T06:43:13.264Z,48.97
2022-12-23T06:45:40.268Z,45.88
2022-12-23T06:48:07.210Z,42.75
2022-12-23T06:50:34.124Z,44.90
2022-12-23T06:53:01.060Z,42.65
2022-12-23T06:55:28.035Z,46.92
2022-12-23T06:57:54.940Z,41.33
2022-12-23T07:00:21.949Z,45.33
2022-12-23T07:02:49.008Z,46.90
2022-12-23T07:05:16.778Z,44.58
2022-12-23T07:07:43.842Z,43.22
2022-12-23T07:10:10.902Z,44.60
2022-12-23T07:12:39.200Z,43.58
2022-12-23T07:15:12.229Z,42.78
2022-12-23T07:17:39.338Z,42.67
2022-12-23T07:20:06.459Z,44.17
2022-12-23T07:22:33.583Z,43.97
2022-12-23T07:25:06.521Z,40.92
2022-12-23T07:27:33.510Z,44.80
2022-12-23T07:30:00.592Z,44.03
2022-12-23T07:32:27.571Z,47.50
2022-12-23T07:34:54.519Z,45.13
2022-12-23T07:37:21.487Z,43.78
2022-12-23T07:39:48.394Z,43.85
2022-12-23T07:45:02.358Z,48.47
2022-12-23T07:47:29.268Z,48.58
2022-12-23T07:49:56.182Z,51.25
2022-12-23T07:52:23.115Z,46.03
2022-12-23T07:54:50.064Z,52.00
2022-12-23T07:57:16.966Z,45.47
2022-12-23T07:59:43.908Z,44.13
2022-12-23T08:02:14.074Z,50.00
2022-12-23T08:04:46.001Z,50.87
2022-12-23T08:07:13.459Z,47.67
2022-12-23T08:09:40.402Z,51.38
2022-12-23T08:12:07.343Z,46.38
2022-12-23T08:14:40.132Z,51.45
2022-12-23T08:17:07.057Z,53.03
2022-12-23T08:19:34.094Z,49.50
2022-12-23T08:22:01.031Z,53.50
2022-12-23T08:24:27.950Z,46.50
2022-12-23T08:26:54.882Z,48.47
2022-12-23T08:29:22.365Z,46.80
2022-12-23T08:31:49.265Z,44.90
2022-12-23T08:34:17.239Z,45.13
2022-12-23T08:36:44.194Z,44.60
2022-12-23T08:39:11.094Z,44.85
2022-12-23T08:41:38.027Z,42.28
2022-12-23T08:44:04.954Z,46.58
2022-12-23T08:46:31.936Z,45.70
2022-12-23T08:48:59.309Z,35.78
2022-12-23T08:51:26.362Z,44.08
2022-12-23T08:53:59.551Z,43.55
2022-12-23T08:56:28.384Z,34.97
2022-12-23T08:58:55.346Z,37.75
2022-12-23T09:01:22.320Z,42.78
2022-12-23T09:03:49.273Z,44.55
2022-12-23T09:06:16.367Z,43.97
2022-12-23T09:08:43.255Z,45.38
2022-12-23T09:11:10.213Z,42.72
2022-12-23T09:13:37.228Z,43.92
2022-12-23T09:16:04.254Z,41.50
2022-12-23T09:18:31.293Z,40.22
2022-12-23T09:20:58.189Z,41.25
2022-12-23T09:23:25.093Z,38.50
2022-12-23T09:25:53.061Z,40.05
2022-12-23T09:28:22.935Z,38.88
2022-12-23T09:30:50.108Z,37.30
2022-12-23T09:33:17.048Z,33.95
2022-12-23T09:35:44.020Z,36.95
2022-12-23T09:38:10.949Z,35.30
2022-12-23T09:40:37.885Z,39.67
2022-12-23T09:43:04.873Z,35.13
2022-12-23T09:45:35.627Z,33.30
2022-12-23T09:48:07.154Z,33.55
2022-12-23T09:50:34.079Z,32.50
2022-12-23T09:53:00.979Z,34.33
2022-12-23T09:55:27.887Z,35.30
2022-12-23T09:57:54.779Z,36.10
2022-12-23T10:00:21.694Z,33.53
2022-12-23T10:02:48.784Z,31.92
2022-12-23T10:05:15.830Z,36.78
2022-12-23T10:07:42.731Z,32.80
2022-12-23T10:10:09.607Z,31.60
2022-12-23T10:12:40.111Z,31.27
2022-12-23T10:15:07.686Z,33.85
2022-12-23T10:17:34.608Z,32.38
2022-12-23T10:20:01.553Z,30.88
2022-12-23T10:22:28.456Z,35.30
2022-12-23T10:24:55.368Z,33.08
2022-12-23T10:27:22.282Z,30.45
2022-12-23T10:29:49.220Z,32.85
2022-12-23T10:32:16.244Z,31.25
2022-12-23T10:34:43.190Z,31.90
2022-12-23T10:37:11.496Z,30.27
2022-12-23T10:39:38.442Z,29.90
2022-12-23T10:42:05.344Z,34.30
2022-12-23T10:44:32.239Z,36.30
2022-12-23T10:46:59.197Z,33.78
2022-12-23T10:49:31.309Z,30.67
2022-12-23T10:51:58.214Z,32.70
2022-12-23T10:54:25.231Z,33.15
2022-12-23T10:56:52.133Z,33.60
2022-12-23T10:59:19.096Z,32.75
2022-12-23T11:01:46.223Z,30.13
2022-12-23T11:04:13.328Z,29.30
2022-12-23T11:06:40.264Z,27.42
2022-12-23T11:09:08.128Z,33.38
2022-12-23T11:11:35.219Z,32.55
2022-12-23T11:14:02.266Z,27.92
2022-12-23T11:16:29.283Z,27.50
2022-12-23T11:18:56.219Z,30.15
2022-12-23T11:21:23.368Z,31.75
2022-12-23T11:23:50.271Z,29.17
2022-12-23T11:26:17.218Z,31.85
2022-12-23T11:28:44.179Z,28.05
2022-12-23T11:31:11.195Z,31.00
2022-12-23T11:33:38.125Z,30.50
2022-12-23T11:36:05.306Z,28.77
2022-12-23T11:38:32.207Z,30.52
2022-12-23T11:40:59.152Z,30.23
2022-12-23T11:43:26.085Z,28.98
2022-12-23T11:45:53.080Z,29.95
2022-12-23T11:48:20.021Z,29.33
2022-12-23T11:50:46.906Z,25.73
2022-12-23T11:53:13.811Z,27.25
2022-12-23T11:55:40.717Z,30.50
2022-12-23T11:58:08.134Z,30.60
2022-12-23T12:00:35.083Z,27.38
2022-12-23T12:03:02.102Z,25.30
2022-12-23T12:05:29.040Z,27.58
2022-12-23T12:07:55.991Z,26.35
2022-12-23T12:10:23.044Z,27.42
2022-12-23T12:12:52.980Z,27.13
2022-12-23T12:15:22.916Z,28.95
2022-12-23T12:17:49.917Z,25.77
2022-12-23T12:20:16.806Z,27.85
2022-12-23T12:22:43.743Z,27.73
2022-12-23T12:25:10.655Z,25.58
2022-12-23T12:27:37.578Z,26.60
2022-12-23T12:30:08.370Z,29.38
2022-12-23T12:32:35.747Z,30.58
2022-12-23T12:35:04.722Z,29.20
2022-12-23T12:37:31.617Z,27.40
2022-12-23T12:39:58.559Z,30.88
2022-12-23T12:42:25.493Z,32.88
2022-12-23T12:44:52.422Z,28.52
2022-12-23T12:47:51.987Z,28.40
2022-12-23T12:50:06.196Z,30.83
2022-12-23T12:52:33.136Z,28.38
2022-12-23T12:55:00.081Z,29.17
2022-12-23T12:57:27.067Z,27.55
2022-12-23T12:59:56.382Z,26.20
2022-12-23T13:02:25.542Z,26.08
2022-12-23T13:04:52.474Z,24.35
2022-12-23T13:07:19.478Z,26.67
2022-12-23T13:09:46.389Z,24.13
2022-12-23T13:12:13.321Z,25.70
2022-12-23T13:14:40.224Z,24.23
2022-12-23T13:17:07.244Z,25.65
2022-12-23T13:19:34.209Z,23.17
2022-12-23T13:22:01.324Z,24.40
2022-12-23T13:24:28.253Z,24.27
2022-12-23T13:26:55.194Z,21.23
2022-12-23T13:29:22.119Z,21.05
2022-12-23T13:31:49.028Z,19.13
2022-12-23T13:34:15.961Z,19.73
2022-12-23T13:36:42.980Z,17.70
2022-12-23T13:39:09.957Z,20.38
2022-12-23T13:41:36.912Z,19.40
2022-12-23T13:44:03.827Z,21.73
2022-12-23T13:46:30.753Z,18.25
2022-12-23T13:48:57.707Z,18.38
2022-12-23T13:51:24.595Z,18.88
2022-12-23T13:53:51.492Z,17.42
2022-12-23T13:56:19.484Z,19.00
2022-12-23T13:58:46.421Z,14.70
2022-12-23T14:01:13.326Z,16.90
2022-12-23T14:03:40.254Z,15.98
2022-12-23T14:06:07.142Z,14.38
2022-12-23T14:08:34.060Z,15.73
2022-12-23T14:11:00.956Z,15.93
2022-12-23T14:13:28.976Z,15.65
2022-12-23T14:15:55.919Z,13.15
2022-12-23T14:18:22.937Z,14.27
2022-12-23T14:20:49.840Z,14.20
2022-12-23T14:23:17.091Z,13.07
2022-12-23T14:25:44.004Z,12.55
2022-12-23T14:28:10.915Z,13.02
2022-12-23T14:30:37.816Z,14.63
2022-12-23T14:33:04.746Z,13.23
2022-12-23T14:35:35.485Z,14.52
2022-12-23T14:38:07.165Z,14.63
2022-12-23T14:40:34.034Z,15.85
2022-12-23T14:43:01.000Z,16.08
2022-12-23T14:45:27.914Z,18.63
2022-12-23T14:47:54.833Z,23.27
2022-12-23T14:50:22.162Z,21.50
2022-12-23T14:52:49.108Z,24.05
2022-12-23T14:55:30.679Z,24.48
2022-12-23T14:58:00.702Z,23.15
2022-12-23T15:00:31.309Z,22.85
2022-12-23T15:02:58.370Z,19.85
2022-12-23T15:05:25.387Z,20.90
2022-12-23T15:07:52.323Z,22.30
2022-12-23T15:10:19.276Z,21.90
2022-12-23T15:12:46.224Z,19.50
2022-12-23T15:15:13.285Z,21.45
2022-12-23T15:17:40.216Z,29.27
2022-12-23T15:20:07.165Z,22.65
2022-12-23T15:22:34.083Z,23.63
2022-12-23T15:25:01.034Z,23.15
2022-12-23T15:27:29.740Z,22.48
2022-12-23T15:29:57.331Z,22.13
2022-12-23T15:32:24.294Z,21.98
2022-12-23T15:34:51.255Z,22.42
2022-12-23T15:37:18.159Z,24.10
2022-12-23T15:39:45.119Z,22.48
2022-12-23T15:42:12.086Z,22.75
2022-12-23T15:44:39.094Z,23.60
2022-12-23T15:47:06.033Z,24.77
2022-12-23T15:49:32.996Z,23.15
2022-12-23T15:52:09.760Z,23.58
2022-12-23T15:54:39.099Z,24.65
2022-12-23T15:57:05.992Z,25.42
2022-12-23T15:59:32.935Z,24.90
2022-12-23T16:01:59.918Z,24.65
2022-12-23T16:04:27.005Z,28.50
2022-12-23T16:06:53.973Z,32.35
2022-12-23T16:09:21.417Z,29.35
2022-12-23T16:11:48.326Z,36.20
2022-12-23T16:14:15.246Z,28.85
2022-12-23T16:16:42.277Z,32.78
2022-12-23T16:19:09.298Z,32.38
2022-12-23T16:21:36.190Z,33.42
2022-12-23T16:24:03.111Z,31.38
2022-12-23T16:26:30.055Z,29.65
2022-12-23T16:28:56.985Z,32.28
2022-12-23T16:31:23.941Z,30.67
2022-12-23T16:33:52.966Z,33.92
2022-12-23T16:36:19.907Z,32.08
2022-12-23T16:38:46.880Z,33.67
2022-12-23T16:41:13.811Z,32.85
2022-12-23T16:43:51.615Z,38.28
2022-12-23T16:46:19.631Z,32.33
2022-12-23T16:48:55.862Z,32.67
2022-12-23T16:56:59.178Z,39.47
2022-12-23T16:59:26.089Z,38.10
2022-12-23T17:01:55.543Z,33.63
2022-12-23T17:04:26.580Z,33.67
2022-12-23T17:06:53.469Z,29.13
2022-12-23T17:09:20.397Z,32.40
2022-12-23T17:11:47.296Z,31.23
2022-12-23T17:14:15.813Z,30.33
2022-12-23T17:16:43.010Z,30.48
2022-12-23T17:19:09.999Z,31.27
2022-12-23T17:21:36.910Z,30.95
2022-12-23T17:24:04.143Z,32.63
2022-12-23T17:26:31.051Z,31.48
2022-12-23T17:28:57.963Z,30.40
2022-12-23T17:31:27.165Z,32.70
2022-12-23T17:34:08.046Z,32.67
2022-12-23T17:36:35.062Z,37.30
2022-12-23T17:44:35.892Z,35.63
2022-12-23T17:47:02.802Z,33.10
2022-12-23T17:49:29.710Z,36.20
2022-12-23T17:57:33.848Z,28.00
2022-12-23T18:00:00.853Z,29.60
2022-12-23T18:02:27.853Z,26.15
2022-12-23T18:04:54.819Z,24.73
2022-12-23T18:07:21.801Z,24.42
2022-12-23T18:09:48.696Z,21.02
2022-12-23T18:12:19.003Z,20.10
2022-12-23T18:14:50.059Z,18.50
2022-12-23T18:17:16.993Z,16.83
2022-12-23T18:19:43.930Z,19.55
2022-12-23T18:22:10.844Z,16.65
2022-12-23T18:24:37.769Z,17.13
2022-12-23T18:27:04.679Z,18.83
2022-12-23T18:29:31.641Z,17.67
2022-12-23T18:31:58.587Z,14.25
2022-12-23T18:34:25.507Z,14.10
2022-12-23T18:36:52.517Z,12.48
2022-12-23T18:39:19.474Z,12.13
2022-12-23T18:41:46.371Z,14.82
2022-12-23T18:44:13.289Z,15.07
2022-12-23T18:46:40.440Z,12.40
2022-12-23T18:49:07.392Z,11.15
2022-12-23T18:51:34.304Z,14.15
2022-12-23T18:54:04.333Z,14.25
2022-12-23T18:56:31.272Z,15.00
2022-12-23T18:58:58.192Z,10.60
2022-12-23T19:01:25.170Z,13.27
2022-12-23T19:03:52.144Z,10.88
2022-12-23T19:06:19.048Z,11.65
2022-12-23T19:08:45.965Z,11.13
2022-12-23T19:11:12.867Z,12.52
2022-12-23T19:13:39.770Z,13.27
2022-12-23T19:16:06.755Z,10.85
2022-12-23T19:18:33.677Z,14.43
2022-12-23T19:21:00.631Z,10.65
2022-12-23T19:23:27.516Z,11.30
2022-12-23T19:25:55.536Z,13.20
2022-12-23T19:28:22.643Z,13.52
2022-12-23T19:30:49.884Z,8.95
2022-12-23T19:33:16.883Z,10.98
2022-12-23T19:35:43.790Z,13.02
2022-12-23T19:38:10.771Z,12.35
2022-12-23T19:40:37.699Z,12.95
2022-12-23T19:43:04.647Z,12.48
2022-12-23T19:45:31.609Z,13.73
2022-12-23T19:47:58.526Z,15.20
2022-12-23T19:50:25.438Z,15.95
2022-12-23T19:52:52.336Z,14.55
2022-12-23T19:55:19.271Z,16.60
2022-12-23T19:57:46.193Z,13.73
2022-12-23T20:00:13.095Z,10.95
2022-12-23T20:02:40.251Z,12.38
2022-12-23T20:05:07.190Z,12.15
2022-12-23T20:07:34.105Z,12.88
2022-12-23T20:10:00.994Z,11.05
2022-12-23T20:12:27.930Z,13.00
2022-12-23T20:14:54.851Z,11.48
2022-12-23T20:17:21.778Z,12.27
2022-12-23T20:19:48.685Z,12.13
2022-12-23T20:22:15.609Z,11.05
2022-12-23T20:25:06.726Z,15.68
2022-12-23T20:30:19.918Z,11.75
2022-12-23T20:33:00.682Z,12.93
2022-12-23T20:35:27.655Z,14.43
2022-12-23T20:37:54.587Z,15.70
2022-12-23T20:40:21.497Z,12.38
2022-12-23T20:42:48.437Z,12.95
2022-12-23T20:45:15.355Z,14.75
2022-12-23T20:47:42.276Z,12.40
2022-12-23T20:50:09.170Z,14.32
2022-12-23T20:52:36.107Z,13.07
2022-12-23T20:55:03.048Z,12.10
2022-12-23T20:57:29.967Z,16.98
2022-12-23T20:59:56.900Z,16.17
2022-12-23T21:02:23.809Z,15.30
2022-12-23T21:04:55.100Z,16.60
2022-12-23T21:07:22.040Z,21.13
2022-12-23T21:09:48.997Z,14.73
2022-12-23T21:12:15.915Z,19.45
2022-12-23T21:14:42.804Z,15.48
2022-12-23T21:17:09.710Z,14.65
2022-12-23T21:19:36.624Z,16.27
2022-12-23T21:22:03.571Z,18.85
2022-12-23T21:24:30.505Z,15.30
2022-12-23T21:26:57.518Z,15.15
2022-12-23T21:29:24.518Z,15.85
2022-12-23T21:31:51.530Z,12.75
2022-12-23T21:34:18.541Z,14.70
2022-12-23T21:36:45.564Z,17.00
2022-12-23T21:39:12.552Z,12.95
2022-12-23T21:41:39.531Z,16.65
2022-12-23T21:44:06.467Z,15.77
2022-12-23T21:46:33.654Z,17.95
2022-12-23T21:49:00.674Z,13.18
2022-12-23T21:51:31.793Z,14.88
2022-12-23T21:54:03.818Z,15.43
2022-12-23T21:56:30.748Z,14.05
2022-12-23T21:58:57.835Z,16.05
2022-12-23T22:01:24.840Z,17.02
2022-12-23T22:03:51.850Z,14.68
2022-12-23T22:06:18.798Z,14.70
2022-12-23T22:08:46.490Z,18.58
2022-12-23T22:11:13.397Z,17.83
2022-12-23T22:13:40.451Z,17.77
2022-12-23T22:16:07.512Z,17.58
2022-12-23T22:18:34.621Z,17.77
2022-12-23T22:21:01.621Z,19.00
2022-12-23T22:23:28.641Z,20.95
2022-12-23T22:25:55.560Z,16.80
2022-12-23T22:28:22.500Z,17.75
2022-12-23T22:30:49.420Z,14.95
2022-12-23T22:33:16.369Z,16.98
2022-12-23T22:35:43.337Z,18.13
2022-12-23T22:38:10.299Z,17.80
2022-12-23T22:40:37.217Z,17.38
2022-12-23T22:43:04.161Z,17.38
2022-12-23T22:45:31.075Z,15.40
2022-12-23T22:47:58.042Z,18.27
2022-12-23T22:50:24.952Z,16.45
2022-12-23T22:52:51.880Z,18.80
2022-12-23T22:55:18.845Z,15.88
2022-12-23T22:57:54.112Z,17.10
2022-12-23T23:00:21.088Z,17.27
2022-12-23T23:02:59.990Z,17.77
2022-12-23T23:05:32.960Z,16.27
2022-12-23T23:08:07.970Z,14.45
2022-12-23T23:13:28.226Z,18.42
2022-12-23T23:16:04.248Z,17.60
2022-12-23T23:21:12.623Z,18.20
2022-12-23T23:26:20.740Z,16.08
2022-12-23T23:28:51.551Z,15.40
2022-12-23T23:36:54.267Z,18.35
2022-12-23T23:39:30.948Z,21.40
2022-12-23T23:41:57.939Z,18.70
2022-12-23T23:44:26.497Z,21.50
2022-12-23T23:49:37.951Z,21.75
2022-12-23T23:52:05.006Z,18.92
2022-12-23T23:54:31.944Z,19.20
2022-12-23T23:56:58.863Z,18.40
2022-12-23T23:59:25.788Z,20.35
